Time;durP1;ratioP1;P1;durP2;ratioP2;P2;SDS_P1;SDS_P2;PMS_P1;PMS_P2;Temp;Humidity;BMP_temperature;BMP_pressure;BME280_temperature;BME280_humidity;BME280_pressure;Samples;Min_cycle;Max_cycle;Signal;HPM_P1;HPM_P2
2022/12/13 00:00:29;;;;;;;8.03;2.53;;;;;;;;;;5010400;28;20877;-68
2022/12/13 00:02:55;;;;;;;3.27;1.20;;;;;;;;;;5010243;28;20466;-68
2022/12/13 00:05:22;;;;;;;1.77;1.00;;;;;;;;;;4972723;28;20444;-68
2022/12/13 00:07:48;;;;;;;3.30;1.50;;;;;;;;;;4990543;28;20444;-69
2022/12/13 00:10:15;;;;;;;1.97;0.83;;;;;;;;;;4973224;28;20440;-68
2022/12/13 00:12:42;;;;;;;1.73;1.30;;;;;;;;;;4973248;28;20436;-68
2022/12/13 00:15:08;;;;;;;1.20;0.77;;;;;;;;;;4990680;28;20432;-68
2022/12/13 00:17:35;;;;;;;3.67;0.93;;;;;;;;;;5028025;28;20984;-68
2022/12/13 00:20:03;;;;;;;3.57;1.20;;;;;;;;;;5030182;28;20500;-69
2022/12/13 00:22:29;;;;;;;2.37;1.10;;;;;;;;;;5029945;28;20414;-68
2022/12/13 00:24:56;;;;;;;2.10;1.17;;;;;;;;;;5029864;28;20442;-69
2022/12/13 00:27:23;;;;;;;2.60;1.40;;;;;;;;;;4998990;28;21176;-69
2022/12/13 00:29:50;;;;;;;1.67;1.00;;;;;;;;;;4973131;28;20869;-68
2022/12/13 00:32:16;;;;;;;3.30;1.70;;;;;;;;;;4973447;28;20463;-69
2022/12/13 00:34:43;;;;;;;3.43;1.60;;;;;;;;;;4972950;28;20424;-69
2022/12/13 00:37:10;;;;;;;4.83;1.97;;;;;;;;;;4972505;28;20530;-69
2022/12/13 00:39:37;;;;;;;2.33;1.40;;;;;;;;;;4973025;28;20890;-69
2022/12/13 00:42:04;;;;;;;1.90;1.30;;;;;;;;;;4989855;28;20539;-69
2022/12/13 00:44:30;;;;;;;1.23;1.10;;;;;;;;;;4972927;28;20522;-69
2022/12/13 00:46:57;;;;;;;3.37;1.30;;;;;;;;;;4989312;28;20444;-69
2022/12/13 00:49:24;;;;;;;2.20;1.10;;;;;;;;;;4990133;28;20872;-69
2022/12/13 00:51:51;;;;;;;2.43;1.23;;;;;;;;;;4972558;28;20491;-70
2022/12/13 00:54:17;;;;;;;1.93;1.00;;;;;;;;;;4990197;28;20447;-69
2022/12/13 00:56:44;;;;;;;2.53;1.07;;;;;;;;;;4989845;28;20435;-68
2022/12/13 00:59:12;;;;;;;3.17;1.30;;;;;;;;;;4989856;28;20995;-69
2022/12/13 01:01:39;;;;;;;1.93;1.40;;;;;;;;;;4983657;28;20446;-69
2022/12/13 01:04:05;;;;;;;1.93;1.43;;;;;;;;;;4992053;28;20431;-68
2022/12/13 01:06:34;;;;;;;3.17;1.40;;;;;;;;;;5009664;28;20499;-68
2022/12/13 01:09:02;;;;;;;3.00;1.50;;;;;;;;;;5009486;28;20823;-69
2022/12/13 01:11:28;;;;;;;4.30;1.63;;;;;;;;;;5008883;28;20481;-69
2022/12/13 01:13:55;;;;;;;1.70;0.83;;;;;;;;;;4992131;28;20862;-69
2022/12/13 01:16:21;;;;;;;1.97;1.10;;;;;;;;;;5000759;28;20435;-69
2022/12/13 01:18:48;;;;;;;1.40;0.60;;;;;;;;;;5028756;28;20561;-69
2022/12/13 01:21:16;;;;;;;2.07;1.10;;;;;;;;;;5029241;28;20434;-68
2022/12/13 01:23:43;;;;;;;2.50;1.50;;;;;;;;;;4990681;28;20456;-68
2022/12/13 01:26:10;;;;;;;3.13;1.50;;;;;;;;;;4972549;28;20539;-68
2022/12/13 01:28:37;;;;;;;2.50;1.50;;;;;;;;;;4972290;28;20458;-69
2022/12/13 01:31:10;;;;;;;2.47;1.50;;;;;;;;;;4972328;28;20452;-68
2022/12/13 01:33:37;;;;;;;2.97;1.00;;;;;;;;;;4972413;28;20467;-68
2022/12/13 01:36:04;;;;;;;1.93;1.03;;;;;;;;;;4989550;28;20506;-69
2022/12/13 01:38:31;;;;;;;2.50;1.00;;;;;;;;;;4972543;28;20432;-68
2022/12/13 01:41:03;;;;;;;2.57;1.53;;;;;;;;;;4973362;28;20543;-69
2022/12/13 01:43:43;;;;;;;6.07;1.70;;;;;;;;;;4989480;28;20439;-69
2022/12/13 01:46:10;;;;;;;3.47;1.60;;;;;;;;;;4989240;28;20447;-69
2022/12/13 01:48:38;;;;;;;2.53;1.23;;;;;;;;;;4988268;28;20948;-69
2022/12/13 01:51:05;;;;;;;2.87;1.17;;;;;;;;;;4989329;28;20619;-68
2022/12/13 01:53:32;;;;;;;3.27;1.50;;;;;;;;;;4989512;28;20943;-69
2022/12/13 01:56:09;;;;;;;2.23;1.37;;;;;;;;;;4972605;28;20523;-69
2022/12/13 01:58:36;;;;;;;2.47;1.13;;;;;;;;;;4974228;28;20438;-69
2022/12/13 02:01:03;;;;;;;1.90;1.20;;;;;;;;;;4993218;28;20459;-69
2022/12/13 02:03:29;;;;;;;3.90;1.37;;;;;;;;;;4992509;28;20444;-69
2022/12/13 02:05:58;;;;;;;1.63;1.20;;;;;;;;;;4975826;28;20840;-69
2022/12/13 02:08:26;;;;;;;1.80;1.30;;;;;;;;;;4976013;28;20463;-69
2022/12/13 02:10:52;;;;;;;1.77;1.20;;;;;;;;;;4993092;28;20431;-69
2022/12/13 02:13:19;;;;;;;3.30;1.77;;;;;;;;;;4975459;28;20836;-69
2022/12/13 02:16:03;;;;;;;2.67;1.40;;;;;;;;;;4983220;28;21189;-69
2022/12/13 02:18:43;;;;;;;3.43;1.77;;;;;;;;;;5014454;28;20491;-69
2022/12/13 02:21:15;;;;;;;4.60;1.47;;;;;;;;;;5014563;28;20829;-69
2022/12/13 02:24:00;;;;;;;2.83;1.40;;;;;;;;;;4998225;28;20430;-69
2022/12/13 02:26:40;;;;;;;1.67;1.23;;;;;;;;;;5009283;28;20452;-69
2022/12/13 02:29:16;;;;;;;2.07;1.37;;;;;;;;;;4992606;28;20820;-69
2022/12/13 02:32:02;;;;;;;2.03;1.47;;;;;;;;;;4992950;28;20498;-69
2022/12/13 02:34:33;;;;;;;6.73;1.23;;;;;;;;;;4992401;28;20431;-69
2022/12/13 02:37:00;;;;;;;2.37;1.47;;;;;;;;;;4975246;28;20764;-69
2022/12/13 02:39:29;;;;;;;1.80;1.37;;;;;;;;;;4992218;28;21041;-69
2022/12/13 02:41:58;;;;;;;3.20;1.37;;;;;;;;;;4975016;28;20519;-68
2022/12/13 02:44:26;;;;;;;1.50;1.10;;;;;;;;;;4992012;28;20447;-69
2022/12/13 02:46:54;;;;;;;2.03;1.33;;;;;;;;;;4992608;28;20436;-68
2022/12/13 02:49:20;;;;;;;1.60;1.20;;;;;;;;;;4974938;28;20566;-68
2022/12/13 02:51:47;;;;;;;2.10;1.30;;;;;;;;;;4971424;28;20477;-68
2022/12/13 02:54:13;;;;;;;2.83;1.80;;;;;;;;;;4971623;28;20527;-69
2022/12/13 02:56:40;;;;;;;2.40;1.60;;;;;;;;;;4972660;28;20532;-69
2022/12/13 02:59:09;;;;;;;2.00;1.13;;;;;;;;;;4972456;28;20463;-68
2022/12/13 03:01:35;;;;;;;2.80;1.67;;;;;;;;;;4971280;28;21011;-69
2022/12/13 03:04:10;;;;;;;1.73;1.00;;;;;;;;;;4971922;28;20453;-68
2022/12/13 03:06:56;;;;;;;1.87;1.00;;;;;;;;;;4963554;28;20955;-69
2022/12/13 03:09:28;;;;;;;2.37;1.47;;;;;;;;;;4971673;28;20433;-69
2022/12/13 03:15:10;;;;;;;2.57;1.40;;;;;;;;;;4966952;28;20487;-68
2022/12/13 03:17:40;;;;;;;1.90;1.27;;;;;;;;;;5009013;28;20439;-67
2022/12/13 03:20:06;;;;;;;2.73;1.30;;;;;;;;;;5009863;28;21132;-69
2022/12/13 03:22:49;;;;;;;3.43;1.50;;;;;;;;;;4980151;28;20441;-69
2022/12/13 03:25:16;;;;;;;2.10;0.93;;;;;;;;;;4975736;28;20442;-68
2022/12/13 03:27:58;;;;;;;1.40;1.10;;;;;;;;;;4959341;28;20444;-69
2022/12/13 03:30:27;;;;;;;3.27;1.80;;;;;;;;;;4992796;28;20436;-69
2022/12/13 03:32:54;;;;;;;3.57;1.10;;;;;;;;;;4993460;28;20531;-69
2022/12/13 03:35:20;;;;;;;2.40;1.23;;;;;;;;;;4975892;28;20494;-70
2022/12/13 03:37:48;;;;;;;2.10;1.60;;;;;;;;;;4992941;28;20888;-70
2022/12/13 03:40:15;;;;;;;1.60;1.13;;;;;;;;;;4992217;28;20484;-70
2022/12/13 03:42:42;;;;;;;2.27;1.60;;;;;;;;;;4975437;28;20856;-70
2022/12/13 03:45:08;;;;;;;2.40;1.73;;;;;;;;;;4993083;28;20436;-70
2022/12/13 03:47:35;;;;;;;2.33;1.40;;;;;;;;;;4955646;28;20460;-70
2022/12/13 03:50:02;;;;;;;1.93;1.30;;;;;;;;;;4977989;28;20452;-69
2022/12/13 03:52:50;;;;;;;4.23;1.90;;;;;;;;;;5005612;28;20435;-70
2022/12/13 03:55:17;;;;;;;2.83;1.37;;;;;;;;;;5012903;28;20450;-69
2022/12/13 03:57:44;;;;;;;2.43;1.37;;;;;;;;;;4995761;28;20787;-70
2022/12/13 04:00:11;;;;;;;2.23;1.70;;;;;;;;;;5010825;28;21037;-69
2022/12/13 04:02:37;;;;;;;3.63;1.60;;;;;;;;;;4993217;28;20431;-69
2022/12/13 04:05:04;;;;;;;1.77;1.27;;;;;;;;;;5010619;28;20462;-69
2022/12/13 04:07:31;;;;;;;2.57;1.70;;;;;;;;;;4976881;28;20534;-69
2022/12/13 04:10:00;;;;;;;4.77;1.80;;;;;;;;;;4990880;28;20451;-69
2022/12/13 04:15:14;;;;;;;2.83;1.73;;;;;;;;;;4990780;28;20923;-69
2022/12/13 04:17:41;;;;;;;1.93;1.60;;;;;;;;;;5029815;28;20430;-69
2022/12/13 04:20:08;;;;;;;1.23;0.93;;;;;;;;;;5029781;28;20468;-69
2022/12/13 04:22:34;;;;;;;3.30;2.10;;;;;;;;;;4995272;28;20434;-69
2022/12/13 04:25:01;;;;;;;3.93;2.20;;;;;;;;;;5012348;28;20426;-69
2022/12/13 04:27:28;;;;;;;3.03;1.60;;;;;;;;;;4979284;28;20502;-69
2022/12/13 04:29:55;;;;;;;5.30;1.73;;;;;;;;;;4992820;28;20470;-69
2022/12/13 04:32:22;;;;;;;3.33;1.70;;;;;;;;;;4992997;28;20493;-69
2022/12/13 04:34:52;;;;;;;3.50;1.87;;;;;;;;;;5009989;28;20905;-69
2022/12/13 04:37:27;;;;;;;1.50;1.03;;;;;;;;;;5009693;28;20473;-69
2022/12/13 04:39:53;;;;;;;3.30;1.93;;;;;;;;;;5009743;28;20459;-69
2022/12/13 04:42:26;;;;;;;6.97;2.80;;;;;;;;;;4976537;28;20435;-69
2022/12/13 04:44:53;;;;;;;4.43;2.40;;;;;;;;;;5009867;28;20553;-69
2022/12/13 04:47:20;;;;;;;4.00;2.27;;;;;;;;;;4992747;28;20777;-69
2022/12/13 04:49:46;;;;;;;5.23;2.77;;;;;;;;;;4989937;28;20439;-69
2022/12/13 04:52:13;;;;;;;5.57;2.57;;;;;;;;;;4969420;28;20456;-69
2022/12/13 04:54:48;;;;;;;3.93;1.70;;;;;;;;;;4970513;28;20455;-69
2022/12/13 04:57:21;;;;;;;4.40;2.40;;;;;;;;;;4967321;28;20774;-69
2022/12/13 04:59:50;;;;;;;3.73;2.20;;;;;;;;;;4970285;28;20567;-69
2022/12/13 05:02:16;;;;;;;3.50;2.07;;;;;;;;;;4971084;28;20445;-69
2022/12/13 05:04:50;;;;;;;3.03;1.57;;;;;;;;;;4970198;28;20449;-69
2022/12/13 05:07:21;;;;;;;3.87;2.13;;;;;;;;;;4970237;28;20433;-69
2022/12/13 05:09:48;;;;;;;4.10;2.00;;;;;;;;;;4970500;28;20413;-69
2022/12/13 05:12:15;;;;;;;5.33;2.37;;;;;;;;;;4968969;28;20960;-70
2022/12/13 05:14:49;;;;;;;4.27;2.20;;;;;;;;;;4970333;28;20448;-69
2022/12/13 05:17:16;;;;;;;4.80;2.23;;;;;;;;;;5002995;28;20465;-69
2022/12/13 05:19:42;;;;;;;2.17;1.27;;;;;;;;;;5007742;28;20475;-69
2022/12/13 05:22:14;;;;;;;2.53;1.57;;;;;;;;;;5009275;28;20907;-69
2022/12/13 05:24:45;;;;;;;4.80;2.23;;;;;;;;;;5008999;28;20435;-69
2022/12/13 05:27:12;;;;;;;4.57;2.37;;;;;;;;;;5009220;28;20427;-69
2022/12/13 05:29:52;;;;;;;3.47;2.13;;;;;;;;;;4975745;28;20448;-69
2022/12/13 05:32:35;;;;;;;4.37;2.40;;;;;;;;;;4970596;28;20433;-69
2022/12/13 05:35:11;;;;;;;3.53;2.30;;;;;;;;;;4974192;28;20437;-69
2022/12/13 05:37:38;;;;;;;4.10;2.40;;;;;;;;;;4992005;28;20866;-69
2022/12/13 05:40:05;;;;;;;2.93;1.83;;;;;;;;;;4972504;28;20461;-69
2022/12/13 05:42:32;;;;;;;6.73;2.47;;;;;;;;;;4978694;28;20463;-69
2022/12/13 05:45:04;;;;;;;8.53;2.23;;;;;;;;;;4991846;28;20428;-69
2022/12/13 05:47:31;;;;;;;4.00;1.97;;;;;;;;;;4991791;28;20490;-70
2022/12/13 05:49:58;;;;;;;3.60;2.43;;;;;;;;;;4993678;28;20420;-69
2022/12/13 05:52:25;;;;;;;3.97;2.33;;;;;;;;;;5009570;28;20558;-70
2022/12/13 05:54:56;;;;;;;3.03;2.30;;;;;;;;;;5011784;28;20446;-70
2022/12/13 05:57:26;;;;;;;3.87;2.57;;;;;;;;;;4994773;28;21059;-69
2022/12/13 05:59:53;;;;;;;2.70;1.40;;;;;;;;;;4976309;28;20951;-69
2022/12/13 06:02:20;;;;;;;5.13;2.50;;;;;;;;;;5011281;28;20446;-69
2022/12/13 06:04:47;;;;;;;4.90;2.50;;;;;;;;;;4994919;28;20449;-69
2022/12/13 06:07:14;;;;;;;5.87;2.47;;;;;;;;;;5008495;28;20802;-69
2022/12/13 06:09:41;;;;;;;2.43;1.47;;;;;;;;;;4992909;28;20486;-68
2022/12/13 06:12:08;;;;;;;6.57;2.20;;;;;;;;;;4988519;28;20454;-68
2022/12/13 06:14:55;;;;;;;1.93;1.47;;;;;;;;;;5007703;28;20546;-69
2022/12/13 06:17:30;;;;;;;4.63;2.80;;;;;;;;;;5003275;28;20427;-68
2022/12/13 06:19:57;;;;;;;3.60;1.93;;;;;;;;;;4994205;28;20465;-69
2022/12/13 06:22:24;;;;;;;4.27;2.23;;;;;;;;;;5011835;28;20969;-69
2022/12/13 06:24:51;;;;;;;3.37;1.67;;;;;;;;;;4995064;28;20454;-69
2022/12/13 06:27:20;;;;;;;6.23;2.40;;;;;;;;;;4996300;28;20445;-68
2022/12/13 06:29:46;;;;;;;7.87;2.10;;;;;;;;;;4996830;28;20434;-69
2022/12/13 06:32:13;;;;;;;3.40;2.23;;;;;;;;;;4980181;28;21158;-69
2022/12/13 06:34:40;;;;;;;3.63;2.00;;;;;;;;;;4995765;28;21131;-69
2022/12/13 06:37:07;;;;;;;1.80;1.00;;;;;;;;;;4996257;28;20492;-68
2022/12/13 06:39:34;;;;;;;6.80;1.73;;;;;;;;;;5013584;28;20470;-69
2022/12/13 06:42:02;;;;;;;3.80;1.93;;;;;;;;;;4995707;28;20470;-69
2022/12/13 06:44:28;;;;;;;3.17;1.40;;;;;;;;;;5010499;28;20470;-68
2022/12/13 06:46:55;;;;;;;3.70;1.93;;;;;;;;;;5010220;28;20485;-68
2022/12/13 06:49:36;;;;;;;5.53;2.13;;;;;;;;;;5007929;28;20454;-68
2022/12/13 06:52:03;;;;;;;2.73;1.73;;;;;;;;;;5011481;28;20486;-68
2022/12/13 06:54:29;;;;;;;5.00;2.70;;;;;;;;;;5010896;28;20459;-69
2022/12/13 06:56:56;;;;;;;4.83;2.53;;;;;;;;;;4993015;28;20466;-69
2022/12/13 06:59:23;;;;;;;6.70;3.40;;;;;;;;;;4993259;28;20454;-69
2022/12/13 07:01:49;;;;;;;5.70;3.13;;;;;;;;;;5008263;28;20517;-68
2022/12/13 07:04:16;;;;;;;5.37;2.30;;;;;;;;;;5002614;28;20447;-69
2022/12/13 07:06:56;;;;;;;7.13;2.47;;;;;;;;;;5011397;28;20431;-68
2022/12/13 07:09:28;;;;;;;4.40;2.00;;;;;;;;;;4974982;28;20456;-69
2022/12/13 07:11:55;;;;;;;6.33;2.60;;;;;;;;;;4991765;28;20950;-68
2022/12/13 07:14:21;;;;;;;7.60;3.30;;;;;;;;;;4992074;28;20879;-69
2022/12/13 07:16:48;;;;;;;5.77;2.80;;;;;;;;;;5016400;28;20945;-69
2022/12/13 07:19:15;;;;;;;5.90;3.17;;;;;;;;;;4997098;28;20442;-69
2022/12/13 07:21:50;;;;;;;5.97;3.23;;;;;;;;;;5030908;28;20473;-68
2022/12/13 07:24:16;;;;;;;5.10;2.50;;;;;;;;;;5031051;28;20863;-68
2022/12/13 07:26:43;;;;;;;6.17;2.80;;;;;;;;;;5030568;28;20492;-69
2022/12/13 07:29:11;;;;;;;7.63;3.00;;;;;;;;;;4997653;28;20547;-69
2022/12/13 07:31:47;;;;;;;4.93;2.47;;;;;;;;;;5030725;28;20855;-69
2022/12/13 07:34:14;;;;;;;5.03;2.73;;;;;;;;;;5030917;28;20492;-69
2022/12/13 07:36:41;;;;;;;3.40;1.90;;;;;;;;;;4980662;28;20450;-69
2022/12/13 07:39:09;;;;;;;5.27;2.10;;;;;;;;;;5030543;28;20426;-69
2022/12/13 07:41:36;;;;;;;2.53;1.07;;;;;;;;;;5030696;28;21031;-69
2022/12/13 07:44:03;;;;;;;6.00;2.93;;;;;;;;;;5012883;28;20627;-69
2022/12/13 07:46:30;;;;;;;5.27;2.00;;;;;;;;;;5012953;28;20434;-68
2022/12/13 07:49:02;;;;;;;3.20;1.80;;;;;;;;;;5030584;28;20421;-69
2022/12/13 07:51:28;;;;;;;5.17;2.20;;;;;;;;;;5009481;28;20462;-68
2022/12/13 07:53:56;;;;;;;2.90;1.57;;;;;;;;;;5010621;28;20435;-68
2022/12/13 07:56:22;;;;;;;2.17;1.50;;;;;;;;;;5010480;28;20439;-69
2022/12/13 07:58:49;;;;;;;4.03;2.10;;;;;;;;;;5010373;28;20431;-69
2022/12/13 08:01:17;;;;;;;4.67;2.30;;;;;;;;;;5010546;28;21023;-69
2022/12/13 08:03:46;;;;;;;1.93;1.37;;;;;;;;;;5009274;28;20847;-69
2022/12/13 08:06:13;;;;;;;3.10;1.37;;;;;;;;;;5010432;28;20427;-68
2022/12/13 08:08:40;;;;;;;2.93;2.23;;;;;;;;;;5010380;28;21167;-68
2022/12/13 08:11:10;;;;;;;5.97;3.20;;;;;;;;;;5010580;28;20450;-69
2022/12/13 08:13:54;;;;;;;5.17;2.27;;;;;;;;;;5009473;28;20431;-68
2022/12/13 08:16:21;;;;;;;2.60;1.57;;;;;;;;;;5001423;28;20428;-68
2022/12/13 08:18:54;;;;;;;5.33;2.60;;;;;;;;;;4989325;28;20440;-68
2022/12/13 08:21:28;;;;;;;3.83;1.60;;;;;;;;;;4989409;28;20467;-69
2022/12/13 08:24:15;;;;;;;5.43;2.30;;;;;;;;;;4990530;28;20442;-69
2022/12/13 08:26:42;;;;;;;8.53;1.60;;;;;;;;;;4990488;28;20820;-68
2022/12/13 08:29:08;;;;;;;5.40;1.57;;;;;;;;;;4989481;28;20450;-69
2022/12/13 08:31:35;;;;;;;6.00;2.60;;;;;;;;;;4973189;28;20433;-69
2022/12/13 08:34:02;;;;;;;1.63;1.20;;;;;;;;;;4989019;28;20428;-68
2022/12/13 08:36:28;;;;;;;4.63;2.00;;;;;;;;;;4990275;28;20740;-68
2022/12/13 08:38:55;;;;;;;5.43;1.37;;;;;;;;;;4990228;28;20433;-69
2022/12/13 08:41:23;;;;;;;5.13;2.20;;;;;;;;;;4988919;28;20550;-69
2022/12/13 08:43:50;;;;;;;1.30;0.83;;;;;;;;;;4987808;28;20484;-68
2022/12/13 08:46:16;;;;;;;2.00;0.87;;;;;;;;;;4957365;28;20430;-68
2022/12/13 08:48:43;;;;;;;5.37;2.03;;;;;;;;;;4972685;28;20860;-68
2022/12/13 08:51:12;;;;;;;6.83;3.33;;;;;;;;;;4979604;28;20456;-69
2022/12/13 08:53:38;;;;;;;6.67;3.23;;;;;;;;;;5009922;28;21012;-69
2022/12/13 08:56:09;;;;;;;6.00;3.10;;;;;;;;;;5010117;28;20427;-69
2022/12/13 08:58:36;;;;;;;3.93;1.83;;;;;;;;;;5009742;28;20441;-69
2022/12/13 09:01:06;;;;;;;6.43;3.70;;;;;;;;;;4992297;28;20465;-69
2022/12/13 09:03:33;;;;;;;5.13;2.37;;;;;;;;;;5009167;28;21001;-69
2022/12/13 09:06:13;;;;;;;4.60;2.57;;;;;;;;;;4992519;28;20466;-69
2022/12/13 09:08:40;;;;;;;5.67;1.90;;;;;;;;;;5009089;28;20433;-69
2022/12/13 09:11:07;;;;;;;4.33;2.47;;;;;;;;;;4992485;28;20802;-69
2022/12/13 09:13:48;;;;;;;2.83;1.30;;;;;;;;;;4993722;28;20463;-69
2022/12/13 09:16:16;;;;;;;5.80;2.50;;;;;;;;;;5017645;28;20430;-69
2022/12/13 09:18:50;;;;;;;8.90;2.97;;;;;;;;;;5008061;28;20484;-69
2022/12/13 09:21:20;;;;;;;6.50;3.10;;;;;;;;;;5027442;28;20473;-69
2022/12/13 09:23:57;;;;;;;3.67;1.87;;;;;;;;;;5029394;28;20778;-69
2022/12/13 09:26:27;;;;;;;4.90;2.20;;;;;;;;;;5029089;28;20430;-69
2022/12/13 09:28:54;;;;;;;6.90;3.27;;;;;;;;;;5029617;28;20430;-69
2022/12/13 09:31:20;;;;;;;8.10;3.93;;;;;;;;;;5029261;28;21032;-68
2022/12/13 09:34:05;;;;;;;5.30;2.33;;;;;;;;;;5008343;28;20441;-69
2022/12/13 09:36:31;;;;;;;4.80;2.37;;;;;;;;;;5010971;28;20433;-69
2022/12/13 09:38:58;;;;;;;5.23;2.70;;;;;;;;;;5007985;28;20437;-69
2022/12/13 09:41:29;;;;;;;4.63;2.07;;;;;;;;;;4993849;28;20467;-69
2022/12/13 09:43:58;;;;;;;4.90;2.27;;;;;;;;;;4992262;28;20501;-69
2022/12/13 09:46:30;;;;;;;8.27;3.07;;;;;;;;;;5010329;28;20450;-68
2022/12/13 09:49:11;;;;;;;6.87;3.50;;;;;;;;;;5028887;28;20466;-68
2022/12/13 09:51:39;;;;;;;7.57;3.60;;;;;;;;;;5028971;28;20880;-69
2022/12/13 09:54:15;;;;;;;4.17;2.10;;;;;;;;;;5029143;28;20937;-69
2022/12/13 09:56:42;;;;;;;5.83;2.97;;;;;;;;;;4991629;28;20847;-69
2022/12/13 09:59:12;;;;;;;5.30;3.10;;;;;;;;;;5008263;28;20434;-69
2022/12/13 10:01:38;;;;;;;4.60;2.27;;;;;;;;;;5011285;28;20894;-68
2022/12/13 10:04:06;;;;;;;4.80;2.57;;;;;;;;;;4994704;28;20501;-69
2022/12/13 10:06:34;;;;;;;9.33;3.43;;;;;;;;;;5011489;28;20458;-69
2022/12/13 10:09:00;;;;;;;5.90;2.87;;;;;;;;;;5007740;28;20458;-69
2022/12/13 10:11:27;;;;;;;7.33;3.33;;;;;;;;;;5010111;28;20760;-69
2022/12/13 10:14:01;;;;;;;4.03;2.73;;;;;;;;;;5008153;28;20442;-69
2022/12/13 10:16:42;;;;;;;5.43;2.77;;;;;;;;;;5017459;28;20424;-69
2022/12/13 10:19:27;;;;;;;7.50;3.03;;;;;;;;;;4989365;28;20927;-68
2022/12/13 10:21:56;;;;;;;7.77;4.07;;;;;;;;;;5007035;28;20462;-69
2022/12/13 10:24:46;;;;;;;8.77;3.87;;;;;;;;;;4978336;28;20446;-69
2022/12/13 10:27:13;;;;;;;7.63;3.13;;;;;;;;;;4991855;28;20436;-69
2022/12/13 10:29:59;;;;;;;7.87;3.97;;;;;;;;;;4991560;28;20432;-69
2022/12/13 10:32:26;;;;;;;6.50;3.50;;;;;;;;;;4993761;28;20462;-68
2022/12/13 10:34:55;;;;;;;10.07;3.00;;;;;;;;;;5012223;28;20430;-69
2022/12/13 10:37:22;;;;;;;5.90;3.27;;;;;;;;;;4992595;28;20439;-69
2022/12/13 10:39:49;;;;;;;7.53;3.70;;;;;;;;;;5011923;28;20427;-69
2022/12/13 10:42:17;;;;;;;5.70;3.10;;;;;;;;;;4991824;28;20480;-69
2022/12/13 10:44:53;;;;;;;5.30;2.37;;;;;;;;;;4991149;28;20463;-69
2022/12/13 10:47:20;;;;;;;4.77;2.23;;;;;;;;;;4992810;28;20824;-68
2022/12/13 10:49:49;;;;;;;6.13;3.07;;;;;;;;;;4990881;28;20510;-68
2022/12/13 10:52:32;;;;;;;5.90;2.60;;;;;;;;;;4992893;28;20459;-69
2022/12/13 10:55:01;;;;;;;6.60;2.70;;;;;;;;;;5011838;28;20434;-69
2022/12/13 10:57:27;;;;;;;4.43;1.83;;;;;;;;;;5011351;28;20949;-68
2022/12/13 10:59:54;;;;;;;8.27;2.60;;;;;;;;;;5011588;28;20438;-69
2022/12/13 11:02:26;;;;;;;9.37;3.20;;;;;;;;;;4992269;28;20483;-69
2022/12/13 11:04:53;;;;;;;4.03;2.17;;;;;;;;;;4991013;28;20440;-69
2022/12/13 11:07:27;;;;;;;5.70;2.77;;;;;;;;;;4992189;28;20467;-68
2022/12/13 11:09:54;;;;;;;6.37;2.80;;;;;;;;;;4990704;28;20535;-69
2022/12/13 11:12:30;;;;;;;3.33;1.93;;;;;;;;;;4993282;28;20463;-69
2022/12/13 11:15:00;;;;;;;4.57;2.73;;;;;;;;;;4990546;28;20459;-69
2022/12/13 11:17:28;;;;;;;7.00;3.33;;;;;;;;;;5010644;28;20453;-69
2022/12/13 11:19:55;;;;;;;10.20;2.80;;;;;;;;;;5010391;28;20435;-68
2022/12/13 11:22:26;;;;;;;6.13;3.07;;;;;;;;;;5011403;28;20578;-69
2022/12/13 11:24:55;;;;;;;4.77;3.00;;;;;;;;;;5010026;28;20426;-69
2022/12/13 11:27:22;;;;;;;5.60;3.13;;;;;;;;;;5011353;28;20469;-69
2022/12/13 11:30:07;;;;;;;8.27;3.50;;;;;;;;;;5030608;28;20430;-69
2022/12/13 11:32:34;;;;;;;6.63;3.37;;;;;;;;;;5030864;28;20434;-69
2022/12/13 11:35:19;;;;;;;10.57;4.13;;;;;;;;;;5031277;28;21293;-69
2022/12/13 11:38:04;;;;;;;8.37;3.80;;;;;;;;;;5030771;28;20466;-69
2022/12/13 11:40:31;;;;;;;5.33;1.63;;;;;;;;;;5030699;28;20445;-70
2022/12/13 11:43:00;;;;;;;4.70;1.97;;;;;;;;;;5009797;28;20949;-69
2022/12/13 11:45:28;;;;;;;7.93;3.10;;;;;;;;;;5029324;28;20469;-69
2022/12/13 11:48:01;;;;;;;7.00;3.20;;;;;;;;;;5009948;28;20964;-69
2022/12/13 11:50:29;;;;;;;7.80;3.30;;;;;;;;;;5029422;28;20430;-69
2022/12/13 11:53:03;;;;;;;8.17;3.30;;;;;;;;;;5010208;28;20530;-69
2022/12/13 11:55:33;;;;;;;7.30;3.73;;;;;;;;;;4995641;28;20530;-69
2022/12/13 11:58:06;;;;;;;4.03;2.47;;;;;;;;;;5009684;28;20446;-69
2022/12/13 12:00:33;;;;;;;6.60;3.07;;;;;;;;;;5012072;28;20457;-69
2022/12/13 12:03:23;;;;;;;8.70;3.07;;;;;;;;;;4993285;28;21390;-69
2022/12/13 12:05:51;;;;;;;6.63;3.13;;;;;;;;;;5009380;28;20431;-69
2022/12/13 12:08:38;;;;;;;6.77;3.10;;;;;;;;;;5010961;28;20522;-69
2022/12/13 12:11:08;;;;;;;6.60;3.50;;;;;;;;;;5030219;28;20442;-69
2022/12/13 12:13:38;;;;;;;6.37;3.10;;;;;;;;;;5012387;28;20767;-69
2022/12/13 12:16:32;;;;;;;8.63;3.50;;;;;;;;;;5001626;28;20436;-69
2022/12/13 12:18:59;;;;;;;7.63;3.70;;;;;;;;;;4989828;28;20882;-69
2022/12/13 12:21:27;;;;;;;7.87;3.73;;;;;;;;;;5008715;28;20826;-69
2022/12/13 12:24:29;;;;;;;6.17;3.40;;;;;;;;;;5010594;28;20486;-69
2022/12/13 12:26:55;;;;;;;7.13;3.80;;;;;;;;;;4989290;28;20454;-69
2022/12/13 12:29:30;;;;;;;7.03;2.83;;;;;;;;;;5008733;28;20791;-69
2022/12/13 12:32:15;;;;;;;4.83;2.70;;;;;;;;;;4990228;28;20412;-69
2022/12/13 12:34:41;;;;;;;5.93;3.00;;;;;;;;;;5010113;28;20435;-69
2022/12/13 12:37:08;;;;;;;7.03;2.83;;;;;;;;;;5010138;28;20466;-69
2022/12/13 12:39:42;;;;;;;4.60;2.37;;;;;;;;;;5010398;28;20431;-69
2022/12/13 12:42:18;;;;;;;5.77;2.40;;;;;;;;;;4988213;28;20460;-70
2022/12/13 12:44:45;;;;;;;7.27;2.20;;;;;;;;;;5003051;28;21192;-69
2022/12/13 12:47:23;;;;;;;4.57;2.10;;;;;;;;;;5010226;28;20461;-69
2022/12/13 12:50:15;;;;;;;5.07;2.90;;;;;;;;;;5010027;28;20439;-69
2022/12/13 12:52:46;;;;;;;7.00;3.27;;;;;;;;;;4991765;28;20489;-69
2022/12/13 12:55:25;;;;;;;9.87;2.83;;;;;;;;;;5009633;28;20415;-69
2022/12/13 12:57:54;;;;;;;6.77;2.93;;;;;;;;;;5009582;28;20435;-69
2022/12/13 13:00:24;;;;;;;5.40;2.50;;;;;;;;;;5009492;28;20850;-69
2022/12/13 13:02:50;;;;;;;5.23;2.33;;;;;;;;;;5009630;28;20528;-69
2022/12/13 13:05:19;;;;;;;4.47;1.90;;;;;;;;;;4992505;28;20435;-69
2022/12/13 13:07:49;;;;;;;9.43;3.50;;;;;;;;;;4992341;28;20777;-69
2022/12/13 13:10:17;;;;;;;5.07;2.27;;;;;;;;;;4992506;28;20423;-69
2022/12/13 13:12:55;;;;;;;4.43;2.73;;;;;;;;;;4993409;28;20966;-69
2022/12/13 13:15:38;;;;;;;9.07;3.03;;;;;;;;;;4997584;28;20802;-69
2022/12/13 13:18:06;;;;;;;8.10;2.10;;;;;;;;;;5029208;28;21182;-69
2022/12/13 13:20:32;;;;;;;3.43;1.70;;;;;;;;;;5011251;28;20540;-69
2022/12/13 13:22:59;;;;;;;6.97;2.50;;;;;;;;;;5029280;28;21056;-68
2022/12/13 13:25:52;;;;;;;8.37;2.87;;;;;;;;;;5014172;28;20437;-69
2022/12/13 13:28:39;;;;;;;7.50;3.00;;;;;;;;;;5028896;28;20438;-69
2022/12/13 13:31:07;;;;;;;7.40;4.43;;;;;;;;;;5011284;28;20481;-69
2022/12/13 13:33:41;;;;;;;7.27;2.90;;;;;;;;;;5011731;28;20437;-69
2022/12/13 13:36:08;;;;;;;8.23;3.57;;;;;;;;;;5011488;28;20439;-69
2022/12/13 13:38:48;;;;;;;4.53;2.40;;;;;;;;;;5011593;28;20449;-69
2022/12/13 13:41:36;;;;;;;11.50;4.17;;;;;;;;;;5011140;28;20492;-69
2022/12/13 13:44:23;;;;;;;11.37;4.73;;;;;;;;;;5029251;28;20473;-69
2022/12/13 13:47:13;;;;;;;9.53;4.00;;;;;;;;;;5012188;28;20517;-69
2022/12/13 13:49:46;;;;;;;7.50;4.10;;;;;;;;;;5028736;28;20446;-69
2022/12/13 13:52:19;;;;;;;7.90;3.57;;;;;;;;;;5028566;28;20920;-69
2022/12/13 13:54:57;;;;;;;10.73;5.00;;;;;;;;;;5031432;28;20521;-69
2022/12/13 13:57:36;;;;;;;11.03;5.17;;;;;;;;;;5032196;28;20446;-69
2022/12/13 14:00:22;;;;;;;18.80;6.97;;;;;;;;;;5001388;28;20441;-69
2022/12/13 14:02:52;;;;;;;17.57;6.27;;;;;;;;;;5032464;28;20591;-69
2022/12/13 14:05:39;;;;;;;12.70;5.77;;;;;;;;;;5032669;28;20491;-69
2022/12/13 14:08:15;;;;;;;11.30;4.50;;;;;;;;;;5032461;28;20458;-69
2022/12/13 14:10:50;;;;;;;9.60;4.80;;;;;;;;;;5032448;28;20469;-69
2022/12/13 14:13:40;;;;;;;7.40;3.93;;;;;;;;;;5014915;28;20433;-69
2022/12/13 14:16:19;;;;;;;5.83;3.13;;;;;;;;;;4999882;28;20454;-69
2022/12/13 14:18:46;;;;;;;6.47;2.83;;;;;;;;;;5012382;28;20948;-69
2022/12/13 14:21:13;;;;;;;5.27;2.87;;;;;;;;;;5012070;28;20489;-69
2022/12/13 14:23:40;;;;;;;5.63;2.10;;;;;;;;;;5012474;28;20593;-68
2022/12/13 14:26:09;;;;;;;8.30;3.50;;;;;;;;;;5012692;28;20435;-68
2022/12/13 14:28:46;;;;;;;8.00;3.70;;;;;;;;;;5012321;28;20980;-69
2022/12/13 14:31:14;;;;;;;4.53;1.73;;;;;;;;;;5012388;28;20492;-69
2022/12/13 14:33:47;;;;;;;8.67;3.80;;;;;;;;;;4995771;28;20782;-68
2022/12/13 14:36:14;;;;;;;7.23;2.43;;;;;;;;;;4994772;28;20924;-68
2022/12/13 14:38:41;;;;;;;6.37;2.40;;;;;;;;;;4994762;28;20807;-68
2022/12/13 14:41:20;;;;;;;4.73;1.73;;;;;;;;;;5011975;28;20485;-69
2022/12/13 14:43:47;;;;;;;7.80;2.90;;;;;;;;;;5011936;28;20528;-68
2022/12/13 14:46:15;;;;;;;5.97;2.40;;;;;;;;;;5011936;28;20419;-69
2022/12/13 14:48:49;;;;;;;4.73;2.53;;;;;;;;;;5011758;28;20469;-68
2022/12/13 14:51:21;;;;;;;5.17;3.20;;;;;;;;;;4994138;28;20463;-68
2022/12/13 14:53:49;;;;;;;5.33;2.63;;;;;;;;;;5011524;28;21226;-68
2022/12/13 14:56:16;;;;;;;10.03;3.83;;;;;;;;;;4994647;28;20431;-68
2022/12/13 14:58:57;;;;;;;6.70;3.47;;;;;;;;;;5011591;28;20446;-68
2022/12/13 15:01:31;;;;;;;9.47;3.43;;;;;;;;;;5011724;28;20431;-68
2022/12/13 15:04:17;;;;;;;4.47;2.73;;;;;;;;;;4994310;28;20510;-68
2022/12/13 15:06:44;;;;;;;4.10;2.17;;;;;;;;;;4993016;28;20451;-68
2022/12/13 15:09:14;;;;;;;4.30;2.40;;;;;;;;;;4994816;28;20427;-68